Time;durP1;ratioP1;P1;durP2;ratioP2;P2;SDS_P1;SDS_P2;PMS_P1;PMS_P2;Temp;Humidity;BMP_temperature;BMP_pressure;BME280_temperature;BME280_humidity;BME280_pressure;Samples;Min_cycle;Max_cycle;Signal;HPM_P1;HPM_P2
2021/06/11 00:00:37;;;;;;;11.85;9.13;;;;;;;13.36;67.22;98980.90;2169734;81;20972;-81
2021/06/11 00:03:41;;;;;;;9.63;8.38;;;;;;;13.41;67.28;98974.80;2144211;82;20950;-82
2021/06/11 00:06:42;;;;;;;12.55;9.00;;;;;;;13.43;67.32;98974.36;2166891;82;20921;-82
2021/06/11 00:09:43;;;;;;;13.40;8.28;;;;;;;13.44;67.30;98970.43;2166830;82;20923;-81
2021/06/11 00:12:44;;;;;;;12.88;8.33;;;;;;;13.48;67.56;98970.00;2166834;82;20929;-81
2021/06/11 00:15:45;;;;;;;14.38;8.60;;;;;;;13.49;67.45;98968.69;2166890;82;20911;-82
2021/06/11 00:18:46;;;;;;;13.83;8.00;;;;;;;13.56;67.63;98965.64;2166771;82;20933;-82
2021/06/11 00:21:47;;;;;;;15.40;7.65;;;;;;;13.63;67.69;98964.78;2166745;82;20931;-80
2021/06/11 00:24:48;;;;;;;11.20;7.95;;;;;;;13.67;67.61;98966.53;2166661;82;20961;-81
2021/06/11 00:27:49;;;;;;;11.43;8.03;;;;;;;13.74;67.55;98965.67;2166816;82;20891;-81
2021/06/11 00:30:50;;;;;;;15.75;8.35;;;;;;;13.80;67.55;98961.74;2166669;81;20973;-81
2021/06/11 00:33:51;;;;;;;17.50;8.38;;;;;;;13.77;67.60;98961.73;2166816;82;20989;-80
2021/06/11 00:36:52;;;;;;;9.03;7.83;;;;;;;13.75;67.52;98958.23;2166626;82;20911;-80
2021/06/11 00:39:53;;;;;;;9.28;8.18;;;;;;;13.82;67.72;98958.68;2166884;82;20907;-81
2021/06/11 00:42:54;;;;;;;13.35;8.25;;;;;;;13.80;67.67;98959.12;2166656;82;20926;-82
2021/06/11 00:45:54;;;;;;;9.80;8.20;;;;;;;13.80;67.75;98957.80;2166845;82;20958;-81
2021/06/11 00:48:55;;;;;;;8.83;7.78;;;;;;;13.84;67.64;98956.93;2166673;82;20962;-81
2021/06/11 00:51:56;;;;;;;9.88;8.05;;;;;;;13.90;67.70;98951.72;2166718;82;20934;-81
2021/06/11 00:54:58;;;;;;;29.55;9.85;;;;;;;13.94;67.63;98957.41;2166795;82;20934;-83
2021/06/11 00:57:58;;;;;;;10.63;7.87;;;;;;;13.97;67.75;98960.03;2166711;82;20925;-83
2021/06/11 01:00:59;;;;;;;9.30;8.40;;;;;;;13.99;67.61;98952.16;2166495;81;21013;-82
2021/06/11 01:04:00;;;;;;;15.00;9.20;;;;;;;13.89;67.57;98951.28;2169690;82;20924;-80
2021/06/11 01:07:01;;;;;;;20.82;8.75;;;;;;;13.82;67.83;98952.13;2169697;82;20932;-83
2021/06/11 01:10:02;;;;;;;13.62;8.70;;;;;;;13.82;68.04;98948.19;2169820;82;20996;-82
2021/06/11 01:13:03;;;;;;;22.40;8.98;;;;;;;13.77;68.01;98948.63;2169874;82;20909;-81
2021/06/11 01:16:04;;;;;;;15.38;9.30;;;;;;;13.65;68.01;98950.80;2169591;82;20928;-81
2021/06/11 01:19:05;;;;;;;15.13;8.73;;;;;;;13.57;68.19;98949.91;2169743;82;20960;-81
2021/06/11 01:22:06;;;;;;;10.95;9.25;;;;;;;13.50;68.31;98953.83;2169595;82;20960;-82
2021/06/11 01:25:07;;;;;;;12.10;8.73;;;;;;;13.34;68.37;98949.87;2169677;82;20988;-82
2021/06/11 01:28:08;;;;;;;10.38;8.98;;;;;;;13.20;68.41;98947.65;2169668;82;20972;-81
2021/06/11 01:31:09;;;;;;;14.18;8.63;;;;;;;13.08;68.84;98946.27;2169393;82;21221;-82
2021/06/11 01:34:10;;;;;;;10.25;8.60;;;;;;;12.97;69.05;98949.25;2169349;82;20964;-81
2021/06/11 01:37:11;;;;;;;13.13;8.38;;;;;;;12.85;69.15;98943.95;2169760;82;21341;-82
2021/06/11 01:40:12;;;;;;;94.83;14.10;;;;;;;12.79;69.39;98942.63;2169709;82;20889;-82
2021/06/11 01:43:13;;;;;;;14.60;8.50;;;;;;;12.72;69.67;98942.59;2169753;82;21383;-82
2021/06/11 01:46:16;;;;;;;32.05;19.67;;;;;;;12.62;69.77;98944.72;2169591;82;20968;-81
2021/06/11 01:49:16;;;;;;;25.82;13.03;;;;;;;12.56;69.91;98950.36;2169758;82;20991;-81
2021/06/11 01:52:17;;;;;;;15.75;9.40;;;;;;;12.58;70.17;98948.20;2169963;82;20927;-81
2021/06/11 01:55:18;;;;;;;17.15;9.65;;;;;;;12.59;70.25;98953.88;2169757;82;21141;-81
2021/06/11 01:58:20;;;;;;;17.42;9.00;;;;;;;12.48;70.08;98950.32;2169788;82;20921;-82
2021/06/11 02:01:21;;;;;;;52.75;13.08;;;;;;;12.44;70.32;98946.81;2171577;81;21004;-80
2021/06/11 02:04:22;;;;;;;23.77;10.35;;;;;;;12.44;70.42;98953.78;2193211;81;21000;-82
2021/06/11 02:07:23;;;;;;;15.80;10.40;;;;;;;12.44;70.42;98952.05;2193095;81;21027;-81
2021/06/11 02:10:24;;;;;;;44.33;31.77;;;;;;;12.43;70.40;98946.36;2193021;81;20963;-81
2021/06/11 02:13:27;;;;;;;30.68;22.80;;;;;;;12.36;72.23;98952.43;2192566;81;20916;-80
2021/06/11 02:16:27;;;;;;;36.10;27.70;;;;;;;13.80;72.87;98952.56;2192410;81;20974;-80
2021/06/11 02:19:28;;;;;;;34.73;19.52;;;;;;;15.24;69.31;98950.13;2192584;81;20889;-81
2021/06/11 02:22:29;;;;;;;30.48;14.13;;;;;;;16.09;65.91;98939.52;2192348;81;21101;-80
2021/06/11 02:25:30;;;;;;;17.90;11.05;;;;;;;16.51;64.58;98943.53;2193368;81;21011;-79
2021/06/11 02:28:31;;;;;;;15.32;11.03;;;;;;;16.84;63.50;98949.34;2193013;81;20927;-79
2021/06/11 02:31:33;;;;;;;14.33;10.95;;;;;;;17.20;62.39;98948.89;2192891;81;21006;-80
2021/06/11 02:34:34;;;;;;;41.48;29.63;;;;;;;17.46;61.29;98956.92;2192785;81;20999;-78
2021/06/11 02:37:35;;;;;;;19.10;13.83;;;;;;;17.51;60.23;98947.18;2192968;81;20973;-80
2021/06/11 02:40:36;;;;;;;17.95;11.78;;;;;;;17.53;59.96;98953.31;2192646;81;20957;-79
2021/06/11 02:43:39;;;;;;;16.77;10.03;;;;;;;17.63;59.61;98952.28;2192766;81;21346;-79
2021/06/11 02:46:39;;;;;;;14.98;10.05;;;;;;;17.65;58.93;98950.48;2192979;81;20966;-80
2021/06/11 02:49:40;;;;;;;14.68;10.50;;;;;;;17.66;58.52;98948.31;2192816;81;21252;-79
2021/06/11 02:52:41;;;;;;;19.48;10.80;;;;;;;17.74;58.55;98945.10;2192751;81;20944;-79
2021/06/11 02:55:43;;;;;;;19.35;10.85;;;;;;;17.83;57.92;98947.59;2192565;81;20931;-78
2021/06/11 02:58:44;;;;;;;11.73;10.28;;;;;;;17.92;57.49;98946.58;2192614;81;20961;-79
2021/06/11 03:01:45;;;;;;;31.48;11.43;;;;;;;18.01;57.21;98947.75;2190751;81;21066;-80
2021/06/11 03:04:46;;;;;;;44.03;24.12;;;;;;;18.06;56.27;98945.03;2176578;82;20982;-79
2021/06/11 03:07:48;;;;;;;60.78;42.45;;;;;;;18.06;56.27;98945.03;2176246;82;21020;-79
2021/06/11 03:10:49;;;;;;;36.68;27.35;;;;;;;18.19;55.68;98946.57;2175959;82;20984;-79
2021/06/11 03:13:50;;;;;;;17.95;15.78;;;;;;;18.20;55.11;98944.35;2175815;82;21000;-78
2021/06/11 03:16:51;;;;;;;18.95;14.80;;;;;;;18.11;55.50;98940.09;2175700;82;21311;-78
2021/06/11 03:19:55;;;;;;;23.45;19.92;;;;;;;18.12;55.65;98944.94;2175701;82;20976;-79
2021/06/11 03:22:55;;;;;;;64.10;20.10;;;;;;;18.18;55.51;98948.79;2175990;82;21024;-78
2021/06/11 03:25:56;;;;;;;56.80;31.30;;;;;;;18.29;55.20;98942.03;2176188;82;20996;-79
2021/06/11 03:28:57;;;;;;;40.35;28.10;;;;;;;18.38;54.68;98941.42;2177108;82;20893;-79
2021/06/11 03:31:58;;;;;;;19.12;11.20;;;;;;;18.26;53.73;98939.00;2176448;80;21351;-80
2021/06/11 03:35:00;;;;;;;13.78;10.93;;;;;;;18.06;54.03;98937.98;2176242;82;21018;-79
2021/06/11 03:38:01;;;;;;;14.00;9.68;;;;;;;17.80;54.33;98945.45;2176468;82;20992;-82
2021/06/11 03:41:02;;;;;;;13.35;9.05;;;;;;;17.37;54.33;98940.78;2176575;82;21281;-82
2021/06/11 03:44:03;;;;;;;14.05;10.05;;;;;;;15.88;56.28;98944.95;2176449;82;21379;-81
2021/06/11 03:47:04;;;;;;;12.75;10.30;;;;;;;15.88;56.28;98944.95;2176563;82;21336;-81
2021/06/11 03:50:05;;;;;;;12.85;9.40;;;;;;;15.32;57.47;98951.84;2176517;82;20975;-82
2021/06/11 03:53:06;;;;;;;11.83;10.18;;;;;;;14.93;58.50;98952.47;2176654;82;20959;-81
2021/06/11 03:56:07;;;;;;;23.22;10.45;;;;;;;14.73;59.85;98961.70;2176311;82;20939;-81
2021/06/11 03:59:11;;;;;;;12.70;10.18;;;;;;;14.71;60.82;98950.32;2176366;82;20932;-80
2021/06/11 04:02:12;;;;;;;;;;;;;;;14.74;61.40;98951.66;2181862;81;21015;-80
2021/06/11 04:05:13;;;;;;;13.62;9.23;;;;;;;14.80;62.01;98945.07;2192756;81;20102;-81
2021/06/11 04:08:14;;;;;;;20.32;9.85;;;;;;;14.83;62.34;98950.75;2192726;81;21174;-83
2021/06/11 04:11:18;;;;;;;13.38;9.93;;;;;;;14.95;62.38;98953.34;2171645;81;20908;-82
2021/06/11 04:14:19;;;;;;;16.80;10.30;;;;;;;15.16;62.73;98951.05;2192695;81;20999;-81
2021/06/11 04:17:20;;;;;;;18.65;13.58;;;;;;;15.38;62.97;98947.86;2192589;81;20931;-82
2021/06/11 04:20:21;;;;;;;17.07;12.50;;;;;;;15.66;62.85;98944.23;2192898;81;20911;-82
2021/06/11 04:23:22;;;;;;;21.15;11.45;;;;;;;16.04;62.81;98941.31;2192422;81;20959;-81
2021/06/11 04:26:23;;;;;;;14.05;11.20;;;;;;;16.23;62.24;98941.58;2192468;81;21343;-82
2021/06/11 04:29:23;;;;;;;15.05;11.20;;;;;;;16.43;62.05;98933.48;2192665;81;20951;-82
2021/06/11 04:32:25;;;;;;;13.22;11.00;;;;;;;16.74;62.11;98934.53;2191919;81;21031;-80
2021/06/11 04:35:35;;;;;;;16.07;13.20;;;;;;;16.98;61.43;98943.46;2192734;81;20948;-82
2021/06/11 04:38:31;;;;;;;12.43;11.22;;;;;;;17.13;61.34;98941.08;2191528;81;21352;-82
2021/06/11 04:41:32;;;;;;;15.15;11.45;;;;;;;17.30;61.19;98945.68;2192136;81;20979;-81
2021/06/11 04:44:33;;;;;;;12.45;10.95;;;;;;;17.46;60.33;98938.02;2192614;81;20983;-81
2021/06/11 04:47:34;;;;;;;13.28;11.80;;;;;;;17.59;59.83;98943.98;2192687;81;20924;-81
2021/06/11 04:50:35;;;;;;;17.85;13.30;;;;;;;17.70;59.57;98947.36;2193273;81;21335;-83
2021/06/11 04:53:36;;;;;;;20.27;13.20;;;;;;;17.66;59.48;98944.77;2193988;81;20995;-82
2021/06/11 04:56:37;;;;;;;15.72;12.18;;;;;;;17.80;59.60;98948.09;2193193;81;21023;-82
2021/06/11 04:59:38;;;;;;;14.98;12.18;;;;;;;17.85;59.43;98950.22;2193769;81;20974;-81
2021/06/11 05:02:39;;;;;;;13.98;11.12;;;;;;;17.87;59.13;98947.55;2188653;80;21035;-82
2021/06/11 05:05:40;;;;;;;19.25;11.50;;;;;;;17.97;58.89;98943.42;2175938;82;20940;-83
2021/06/11 05:08:42;;;;;;;14.65;11.18;;;;;;;18.13;58.86;98944.91;2175247;82;20992;-84
2021/06/11 05:11:47;;;;;;;12.15;10.58;;;;;;;18.37;58.30;98944.96;2144912;82;20959;-80
2021/06/11 05:14:48;;;;;;;10.85;9.80;;;;;;;18.64;58.10;98938.77;2176689;82;20996;-79
2021/06/11 05:17:49;;;;;;;14.33;11.08;;;;;;;18.90;57.54;98941.78;2177477;81;20975;-80
2021/06/11 05:20:50;;;;;;;11.05;9.88;;;;;;;18.99;57.19;98943.36;2176893;82;20940;-84
2021/06/11 05:23:51;;;;;;;14.43;10.10;;;;;;;19.07;56.51;98944.08;2176641;82;20991;-83
2021/06/11 05:26:52;;;;;;;13.22;11.60;;;;;;;19.20;56.46;98946.05;2176470;82;20920;-82
2021/06/11 05:29:53;;;;;;;17.32;12.33;;;;;;;19.43;56.01;98945.09;2176777;82;20964;-82
2021/06/11 05:32:54;;;;;;;15.15;10.55;;;;;;;19.61;55.62;98940.74;2175905;80;21483;-83
2021/06/11 05:35:55;;;;;;;17.65;11.63;;;;;;;19.85;55.08;98943.72;2176349;82;20979;-82
2021/06/11 05:38:56;;;;;;;23.05;14.63;;;;;;;20.16;54.77;98943.87;2175759;82;21217;-82
2021/06/11 05:41:58;;;;;;;16.97;12.00;;;;;;;20.49;53.94;98947.46;2175730;82;20952;-81
2021/06/11 05:44:59;;;;;;;17.90;11.68;;;;;;;20.74;53.33;98948.99;2176323;82;21384;-82
2021/06/11 05:48:01;;;;;;;36.90;12.30;;;;;;;21.01;52.69;98952.69;2176630;82;21000;-81
2021/06/11 05:51:02;;;;;;;19.30;9.78;;;;;;;21.29;52.42;98945.23;2177087;82;20936;-82
2021/06/11 05:54:03;;;;;;;18.40;9.28;;;;;;;21.47;51.60;98949.13;2175905;81;20976;-80
2021/06/11 05:57:04;;;;;;;9.83;8.53;;;;;;;21.62;50.63;98952.63;2175615;82;20951;-81
2021/06/11 06:00:05;;;;;;;22.45;8.90;;;;;;;21.67;50.21;98957.80;2175366;82;20984;-83
2021/06/11 06:03:06;;;;;;;11.48;9.30;;;;;;;21.79;51.02;98945.95;2173544;80;21007;-83
2021/06/11 06:06:07;;;;;;;7.28;6.58;;;;;;;22.05;50.02;98942.02;2169425;82;20937;-81
2021/06/11 06:09:08;;;;;;;8.93;8.13;;;;;;;22.27;49.48;98942.64;2169466;82;20944;-80
2021/06/11 06:12:09;;;;;;;10.95;7.72;;;;;;;22.29;48.58;98944.32;2169557;82;20983;-81
2021/06/11 06:15:10;;;;;;;224.67;25.90;;;;;;;22.29;48.25;98946.11;2169128;82;21051;-80
2021/06/11 06:18:12;;;;;;;10.60;7.15;;;;;;;22.31;48.59;98945.14;2169459;82;20929;-80
2021/06/11 06:21:13;;;;;;;10.30;7.67;;;;;;;22.52;48.25;98947.52;2169352;82;20984;-81
2021/06/11 06:24:14;;;;;;;13.38;10.82;;;;;;;22.81;47.51;98943.89;2169392;82;21387;-81
2021/06/11 06:27:15;;;;;;;9.85;8.03;;;;;;;23.04;47.42;98942.59;2169365;82;20923;-82
2021/06/11 06:30:16;;;;;;;11.40;8.43;;;;;;;23.35;47.10;98940.97;2169227;82;20960;-81
2021/06/11 06:33:17;;;;;;;11.08;8.05;;;;;;;23.63;46.59;98946.16;2169069;81;21170;-82
2021/06/11 06:36:18;;;;;;;14.63;12.47;;;;;;;23.87;46.46;98937.64;2169370;82;21368;-81
2021/06/11 06:39:19;;;;;;;45.48;11.57;;;;;;;24.07;46.58;98939.03;2169859;82;21257;-80
2021/06/11 06:42:20;;;;;;;10.85;7.95;;;;;;;24.39;46.51;98940.41;2169335;82;21284;-80
2021/06/11 06:45:21;;;;;;;14.43;7.25;;;;;;;24.74;45.47;98941.55;2169198;82;21378;-81
2021/06/11 06:48:22;;;;;;;7.90;5.78;;;;;;;25.13;44.93;98943.40;2169014;82;20979;-83
2021/06/11 06:51:26;;;;;;;6.62;6.03;;;;;;;25.40;43.73;98940.82;2169351;82;20951;-81
2021/06/11 06:54:26;;;;;;;7.70;6.43;;;;;;;25.25;42.55;98936.66;2169579;82;20957;-82
2021/06/11 06:57:27;;;;;;;7.62;5.60;;;;;;;25.33;42.65;98933.16;2169192;82;20996;-81
2021/06/11 07:00:28;;;;;;;10.70;6.28;;;;;;;25.43;42.04;98934.94;2169458;82;20915;-82
2021/06/11 07:03:30;;;;;;;7.55;5.65;;;;;;;25.53;41.88;98936.23;2171477;82;21042;-82
2021/06/11 07:06:37;;;;;;;5.45;4.92;;;;;;;25.63;41.86;98937.53;2176036;82;21071;-81
2021/06/11 07:09:38;;;;;;;15.30;5.50;;;;;;;25.75;40.55;98936.97;2176482;82;21386;-80
2021/06/11 07:12:39;;;;;;;6.37;4.30;;;;;;;25.86;39.87;98940.46;2176157;82;20980;-81
2021/06/11 07:15:41;;;;;;;7.20;4.90;;;;;;;25.71;38.97;98936.73;2175959;82;21035;-83
2021/06/11 07:18:41;;;;;;;7.87;4.90;;;;;;;25.73;39.05;98940.19;2176161;82;20910;-81
2021/06/11 07:21:43;;;;;;;7.67;5.30;;;;;;;25.88;39.74;98937.24;2176058;81;21352;-81
2021/06/11 07:24:43;;;;;;;4.90;4.33;;;;;;;25.59;39.42;98933.27;2175893;82;21019;-80
2021/06/11 07:27:45;;;;;;;17.17;5.37;;;;;;;25.54;40.22;98934.83;2176118;82;20943;-80
2021/06/11 07:30:46;;;;;;;4.17;3.75;;;;;;;25.79;39.87;98931.00;2175944;82;20920;-81
2021/06/11 07:33:47;;;;;;;5.85;3.80;;;;;;;25.87;38.87;98927.02;2176172;81;21014;-79
2021/06/11 07:36:47;;;;;;;5.10;3.98;;;;;;;25.81;38.04;98929.13;2175935;82;20936;-80
2021/06/11 07:39:49;;;;;;;6.15;4.42;;;;;;;25.84;38.29;98928.97;2175499;82;20944;-80
2021/06/11 07:42:49;;;;;;;8.23;3.83;;;;;;;25.75;37.34;98934.30;2175348;82;20973;-79
2021/06/11 07:45:50;;;;;;;8.35;3.75;;;;;;;25.65;38.51;98933.87;2175603;81;20936;-81
2021/06/11 07:48:51;;;;;;;5.55;3.45;;;;;;;25.92;38.51;98930.33;2176147;82;20987;-80
2021/06/11 07:51:52;;;;;;;10.10;3.90;;;;;;;26.19;38.17;98930.80;2176103;81;20991;-81
2021/06/11 07:54:53;;;;;;;3.87;3.47;;;;;;;26.36;36.49;98925.10;2176657;82;20980;-79
2021/06/11 07:57:55;;;;;;;2.90;2.70;;;;;;;26.36;36.51;98930.45;2176403;81;20983;-79
2021/06/11 08:00:55;;;;;;;4.58;3.20;;;;;;;26.60;36.40;98923.84;2175818;82;20980;-81
2021/06/11 08:03:58;;;;;;;4.65;2.80;;;;;;;26.96;36.21;98919.72;2181937;81;21090;-82
2021/06/11 08:06:58;;;;;;;3.20;2.90;;;;;;;27.31;33.52;98915.62;2192373;81;20916;-80
2021/06/11 08:10:00;;;;;;;2.40;2.20;;;;;;;27.52;34.64;98917.12;2191902;81;21169;-80
2021/06/11 08:13:00;;;;;;;3.87;2.45;;;;;;;27.76;33.07;98904.20;2192044;81;20936;-81
2021/06/11 08:16:02;;;;;;;4.65;2.80;;;;;;;27.85;32.07;98906.36;2192452;81;20995;-82
2021/06/11 08:19:03;;;;;;;7.35;2.33;;;;;;;27.64;32.07;98910.23;2192262;81;20923;-82
2021/06/11 08:22:04;;;;;;;5.03;2.92;;;;;;;28.04;31.26;98900.31;2191790;81;21008;-80
2021/06/11 08:25:04;;;;;;;5.12;2.70;;;;;;;28.13;30.59;98905.62;2192297;81;21007;-82
2021/06/11 08:28:05;;;;;;;4.65;2.42;;;;;;;28.25;31.76;98898.70;2192443;81;20999;-82
2021/06/11 08:31:06;;;;;;;4.47;2.60;;;;;;;28.60;31.58;98896.58;2192794;81;20939;-83
2021/06/11 08:34:07;;;;;;;2.67;2.47;;;;;;;29.21;31.27;98893.70;2192830;80;21034;-81
2021/06/11 08:37:08;;;;;;;3.15;2.60;;;;;;;29.67;30.01;98893.01;2193024;81;20991;-81
2021/06/11 08:40:09;;;;;;;3.77;2.72;;;;;;;29.93;30.09;98893.98;2193457;81;20928;-80
2021/06/11 08:43:10;;;;;;;2.33;2.12;;;;;;;30.09;29.58;98891.16;2192882;81;20927;-80
2021/06/11 08:46:12;;;;;;;2.25;2.15;;;;;;;30.23;28.15;98885.70;2192469;81;21059;-82
2021/06/11 08:49:13;;;;;;;2.85;1.95;;;;;;;29.98;28.28;98882.42;2191854;81;20934;-82
2021/06/11 08:52:14;;;;;;;6.45;2.47;;;;;;;29.55;28.34;98879.50;2192462;81;21059;-81
2021/06/11 08:55:16;;;;;;;6.53;2.67;;;;;;;29.16;28.95;98883.23;2193007;81;20903;-80
2021/06/11 08:58:17;;;;;;;3.02;2.75;;;;;;;28.83;29.69;98876.81;2192568;81;20946;-80
2021/06/11 09:01:18;;;;;;;3.30;2.40;;;;;;;28.43;30.16;98875.64;2192256;81;21315;-80
2021/06/11 09:04:19;;;;;;;26.57;3.80;;;;;;;28.08;30.96;98881.73;2172947;80;21082;-80
2021/06/11 09:07:22;;;;;;;3.47;2.65;;;;;;;27.72;30.79;98883.84;2147920;83;20955;-82
2021/06/11 09:10:22;;;;;;;6.30;3.42;;;;;;;27.31;31.92;98888.83;2147738;81;20920;-83
2021/06/11 09:13:23;;;;;;;3.40;2.62;;;;;;;26.96;32.32;98887.58;2147521;83;20932;-81
2021/06/11 09:16:24;;;;;;;3.52;2.95;;;;;;;26.87;32.63;98882.21;2147878;83;21236;-81
2021/06/11 09:19:27;;;;;;;6.33;3.35;;;;;;;26.95;33.56;98888.05;2147851;83;20952;-80
2021/06/11 09:22:29;;;;;;;3.33;3.08;;;;;;;26.91;34.03;98886.96;2147991;83;21003;-82
2021/06/11 09:25:30;;;;;;;3.27;3.02;;;;;;;26.86;33.98;98883.16;2148193;83;21022;-82
2021/06/11 09:28:31;;;;;;;4.50;2.98;;;;;;;26.88;33.88;98885.78;2148429;83;21015;-81
2021/06/11 09:31:32;;;;;;;2.77;2.58;;;;;;;26.76;33.81;98883.73;2148592;83;20954;-82
2021/06/11 09:34:33;;;;;;;4.45;2.55;;;;;;;26.80;34.20;98879.95;2148214;83;21015;-82
2021/06/11 09:37:34;;;;;;;5.62;2.70;;;;;;;26.96;33.74;98883.56;2148416;83;21288;-83
2021/06/11 09:40:35;;;;;;;5.15;2.83;;;;;;;26.94;33.72;98884.98;2148869;83;20916;-82
2021/06/11 09:43:36;;;;;;;4.62;2.72;;;;;;;26.92;33.28;98880.66;2148313;83;21303;-82
2021/06/11 09:46:37;;;;;;;3.33;2.67;;;;;;;26.99;33.41;98876.73;2148451;83;21319;-82
2021/06/11 09:49:38;;;;;;;2.67;2.47;;;;;;;27.01;32.91;98877.51;2148364;83;21411;-83
2021/06/11 09:52:39;;;;;;;2.72;2.33;;;;;;;26.94;32.10;98881.44;2148872;83;21003;-82
2021/06/11 09:55:40;;;;;;;3.52;2.60;;;;;;;26.81;32.48;98877.66;2148021;83;21300;-80
2021/06/11 09:58:41;;;;;;;5.00;2.72;;;;;;;26.80;32.27;98873.25;2148689;83;20951;-82
2021/06/11 10:01:42;;;;;;;3.22;2.75;;;;;;;26.72;32.15;98873.66;2148466;83;21380;-82
2021/06/11 10:04:43;;;;;;;3.37;2.40;;;;;;;26.58;32.49;98878.88;2161909;79;21336;-81
2021/06/11 10:07:45;;;;;;;2.80;2.60;;;;;;;26.65;32.63;98874.45;2176374;82;20940;-82
2021/06/11 10:10:46;;;;;;;5.85;2.67;;;;;;;26.85;33.07;98880.09;2176302;82;20940;-79
2021/06/11 10:13:47;;;;;;;12.00;3.00;;;;;;;27.06;33.06;98888.84;2175832;82;20993;-80
2021/06/11 10:16:48;;;;;;;2.85;2.08;;;;;;;26.56;33.21;98889.67;2175967;82;21081;-78
2021/06/11 10:19:49;;;;;;;8.18;1.90;;;;;;;26.11;33.36;98886.18;2175381;82;20952;-78
2021/06/11 10:22:50;;;;;;;2.52;2.33;;;;;;;25.86;34.46;98884.31;2176399;82;20984;-81
2021/06/11 10:25:55;;;;;;;6.58;2.50;;;;;;;25.94;34.88;98880.31;2176356;82;20956;-81
2021/06/11 10:28:56;;;;;;;4.08;2.40;;;;;;;25.83;35.34;98881.31;2177124;82;21019;-81
2021/06/11 10:31:56;;;;;;;2.55;1.95;;;;;;;25.78;35.84;98882.02;2177012;82;21292;-82
2021/06/11 10:34:57;;;;;;;4.15;2.70;;;;;;;25.56;36.35;98886.64;2176354;81;21375;-79
2021/06/11 10:37:58;;;;;;;4.15;2.40;;;;;;;25.15;36.49;98884.13;2176943;82;20905;-82
2021/06/11 10:40:59;;;;;;;4.20;2.60;;;;;;;24.95;36.94;98878.78;2176929;81;20968;-82
2021/06/11 10:44:00;;;;;;;3.90;2.50;;;;;;;24.87;37.11;98888.48;2177236;82;21004;-83
2021/06/11 10:47:01;;;;;;;2.50;2.05;;;;;;;24.69;37.62;98886.17;2176515;82;20918;-80
2021/06/11 10:50:03;;;;;;;4.70;2.42;;;;;;;24.57;38.15;98895.19;2176948;81;20985;-81
2021/06/11 10:53:04;;;;;;;2.90;2.37;;;;;;;24.30;39.01;98894.59;2176530;82;20968;-80
2021/06/11 10:56:06;;;;;;;9.45;2.98;;;;;;;24.01;39.84;98904.63;2176242;82;21400;-82
2021/06/11 10:59:07;;;;;;;5.07;3.00;;;;;;;23.61;41.00;98916.04;2176955;82;21296;-80
2021/06/11 11:02:08;;;;;;;8.18;3.05;;;;;;;23.40;42.44;98924.81;2176496;82;20908;-81
2021/06/11 11:05:09;;;;;;;3.08;2.85;;;;;;;23.07;44.61;98921.64;2172688;81;21047;-79
2021/06/11 11:08:11;;;;;;;7.10;4.05;;;;;;;22.83;47.00;98918.09;2169854;82;20976;-81
2021/06/11 11:11:12;;;;;;;5.95;3.67;;;;;;;22.63;47.46;98921.91;2169627;81;20959;-81
2021/06/11 11:14:13;;;;;;;4.60;3.87;;;;;;;22.55;48.45;98915.52;2169514;82;20933;-81
2021/06/11 11:17:14;;;;;;;6.20;5.55;;;;;;;22.57;49.12;98921.66;2170261;82;20967;-79
2021/06/11 11:20:15;;;;;;;6.12;5.53;;;;;;;22.56;51.66;98927.91;2170175;82;20921;-81
2021/06/11 11:23:16;;;;;;;10.13;5.62;;;;;;;22.40;51.73;98919.56;2170280;82;20905;-81
2021/06/11 11:26:17;;;;;;;7.47;5.17;;;;;;;22.28;52.16;98931.95;2170422;82;20995;-80
2021/06/11 11:29:18;;;;;;;7.65;4.80;;;;;;;22.16;53.15;98929.70;2170264;81;20987;-80
2021/06/11 11:32:19;;;;;;;7.87;4.90;;;;;;;22.03;53.33;98928.38;2170342;82;20980;-80
2021/06/11 11:35:20;;;;;;;6.37;4.90;;;;;;;21.86;53.64;98938.20;2170071;81;20964;-82
2021/06/11 11:38:21;;;;;;;5.92;5.10;;;;;;;21.86;54.37;98934.21;2170365;82;20920;-82
2021/06/11 11:41:22;;;;;;;8.38;5.45;;;;;;;21.79;55.38;98930.02;2170303;82;20921;-84
2021/06/11 11:44:25;;;;;;;8.08;5.15;;;;;;;21.70;56.29;98928.52;2170257;82;20967;-81
2021/06/11 11:47:25;;;;;;;5.78;4.60;;;;;;;21.55;55.90;98920.54;2169967;82;21016;-82
2021/06/11 11:50:27;;;;;;;6.37;5.20;;;;;;;21.56;55.68;98915.64;2169861;82;20905;-81
2021/06/11 11:56:30;;;;;;;5.33;4.92;;;;;;;21.51;56.41;98916.70;2149650;82;20930;-83
2021/06/11 11:59:32;;;;;;;6.05;4.47;;;;;;;21.47;56.29;98913.27;2170150;82;20999;-83
2021/06/11 12:02:32;;;;;;;5.83;4.80;;;;;;;21.34;56.46;98907.92;2170124;82;20940;-82
2021/06/11 12:05:33;;;;;;;8.55;4.55;;;;;;;21.29;56.33;98904.09;2182961;81;21076;-82
2021/06/11 12:08:35;;;;;;;6.62;4.05;;;;;;;21.41;56.17;98896.20;2192195;81;21015;-80
2021/06/11 12:11:36;;;;;;;5.78;4.47;;;;;;;21.58;55.70;98890.36;2192827;81;21320;-81
2021/06/11 12:14:36;;;;;;;5.65;4.12;;;;;;;21.83;55.61;98885.16;2192659;81;21423;-82
2021/06/11 12:17:37;;;;;;;4.70;4.30;;;;;;;22.09;55.02;98883.85;2192941;81;20923;-82
2021/06/11 12:20:38;;;;;;;5.00;4.00;;;;;;;22.39;54.27;98876.59;2193435;81;20963;-82
2021/06/11 12:23:39;;;;;;;4.42;3.95;;;;;;;22.77;53.37;98872.58;2192540;81;21363;-83
2021/06/11 12:26:40;;;;;;;6.28;4.47;;;;;;;23.23;52.51;98863.34;2192678;81;21372;-82
2021/06/11 12:29:41;;;;;;;4.62;4.22;;;;;;;23.66;51.39;98859.90;2192502;81;21386;-80
2021/06/11 12:32:42;;;;;;;4.75;4.35;;;;;;;23.93;50.74;98854.75;2192846;81;21154;-81
2021/06/11 12:35:43;;;;;;;4.65;4.20;;;;;;;24.26;49.60;98854.24;2192811;80;20994;-79
2021/06/11 12:38:44;;;;;;;5.03;4.20;;;;;;;24.64;48.98;98849.95;2193289;81;20956;-79
2021/06/11 12:41:45;;;;;;;4.15;3.77;;;;;;;25.03;47.92;98840.61;2192768;81;20943;-79
2021/06/11 12:44:47;;;;;;;5.30;4.75;;;;;;;25.32;47.23;98841.92;2193364;81;20967;-79
2021/06/11 12:47:49;;;;;;;3.22;3.00;;;;;;;25.65;45.33;98845.66;2193112;81;21010;-79
2021/06/11 12:50:50;;;;;;;4.23;3.93;;;;;;;25.68;44.92;98845.98;2193327;81;20908;-80
2021/06/11 12:53:51;;;;;;;3.42;3.12;;;;;;;25.76;44.34;98850.95;2193409;81;20940;-82
2021/06/11 12:56:53;;;;;;;3.62;3.30;;;;;;;25.61;43.11;98839.17;2193759;81;21003;-81
2021/06/11 12:59:55;;;;;;;3.70;3.02;;;;;;;25.43;42.87;98828.05;2193542;81;20896;-81
2021/06/11 13:02:56;;;;;;;3.37;3.17;;;;;;;25.60;42.21;98830.77;2193995;81;21371;-81
2021/06/11 13:05:57;;;;;;;3.42;3.15;;;;;;;25.69;41.90;98821.84;2182411;81;21707;-82
2021/06/11 13:08:58;;;;;;;2.75;2.65;;;;;;;26.15;41.03;98812.86;2177044;82;20921;-82
2021/06/11 13:11:59;;;;;;;3.35;2.60;;;;;;;26.46;39.27;98809.46;2177250;82;20936;-82
2021/06/11 13:15:00;;;;;;;2.65;2.55;;;;;;;26.61;39.38;98812.66;2177554;82;20924;-82
2021/06/11 13:18:01;;;;;;;3.35;2.33;;;;;;;26.73;39.19;98807.11;2177245;82;20925;-81
2021/06/11 13:21:02;;;;;;;3.50;2.70;;;;;;;26.76;38.69;98807.42;2177322;82;20924;-82
2021/06/11 13:24:03;;;;;;;9.38;3.35;;;;;;;26.61;38.42;98811.31;2177114;81;21082;-80
2021/06/11 13:27:04;;;;;;;7.12;3.30;;;;;;;26.69;39.02;98811.37;2177427;82;20897;-81
2021/06/11 13:30:04;;;;;;;3.22;2.75;;;;;;;26.80;38.70;98804.97;2177390;82;20901;-81
2021/06/11 13:33:05;;;;;;;5.50;2.72;;;;;;;26.97;38.71;98802.25;2176910;82;20928;-80
2021/06/11 13:36:06;;;;;;;2.90;2.70;;;;;;;26.89;38.92;98800.00;2176875;81;21014;-81
2021/06/11 13:39:07;;;;;;;3.35;2.92;;;;;;;26.91;38.57;98795.42;2177047;82;20967;-81
2021/06/11 13:42:08;;;;;;;2.87;2.62;;;;;;;26.98;38.28;98801.81;2177047;82;20952;-81
2021/06/11 13:45:09;;;;;;;3.67;2.30;;;;;;;26.96;37.07;98801.39;2177196;82;20963;-82
2021/06/11 13:48:10;;;;;;;3.08;1.90;;;;;;;27.09;37.73;98796.25;2177103;82;20940;-82
2021/06/11 13:51:11;;;;;;;1.65;1.55;;;;;;;27.21;36.66;98800.91;2177165;82;21256;-82
2021/06/11 13:54:12;;;;;;;7.45;2.47;;;;;;;27.19;35.46;98800.13;2177318;82;20956;-82
2021/06/11 13:57:13;;;;;;;3.30;1.90;;;;;;;26.96;35.19;98802.73;2177049;82;20932;-82
2021/06/11 14:00:14;;;;;;;2.25;1.70;;;;;;;26.81;35.51;98797.32;2177433;82;21015;-81
2021/06/11 14:03:15;;;;;;;2.30;2.10;;;;;;;26.50;35.59;98800.32;2176990;82;20928;-81
2021/06/11 14:06:16;;;;;;;2.42;1.90;;;;;;;26.30;35.38;98805.84;2187649;81;20976;-82